Time;durP1;ratioP1;P1;durP2;ratioP2;P2;SDS_P1;SDS_P2;PMS_P1;PMS_P2;Temp;Humidity;BMP_temperature;BMP_pressure;BME280_temperature;BME280_humidity;BME280_pressure;Samples;Min_cycle;Max_cycle;Signal;HPM_P1;HPM_P2
2023/01/29 00:02:05;;;;;;;14.98;9.88;;;2.00;99.90;;;;;;4913867;29;20056;-81
2023/01/29 00:04:32;;;;;;;17.90;10.75;;;2.00;99.90;;;;;;4907079;29;20055;-81
2023/01/29 00:06:59;;;;;;;12.90;9.10;;;2.00;99.90;;;;;;4909853;29;20055;-81
2023/01/29 00:09:27;;;;;;;13.40;9.00;;;2.00;99.90;;;;;;4909525;29;20045;-80
2023/01/29 00:11:54;;;;;;;14.90;9.50;;;2.00;99.90;;;;;;4910474;29;20044;-81
2023/01/29 00:14:20;;;;;;;18.20;10.73;;;2.00;99.90;;;;;;4907393;29;20053;-81
2023/01/29 00:16:47;;;;;;;14.35;9.77;;;2.10;99.90;;;;;;4910815;29;20055;-80
2023/01/29 00:19:14;;;;;;;23.42;10.88;;;2.10;99.90;;;;;;4911874;29;20056;-81
2023/01/29 00:21:40;;;;;;;18.13;10.35;;;2.10;99.90;;;;;;4911043;29;20471;-81
2023/01/29 00:24:07;;;;;;;17.25;11.13;;;2.10;99.90;;;;;;4912058;29;20480;-81
2023/01/29 00:26:34;;;;;;;16.45;9.43;;;2.10;99.90;;;;;;4913967;29;20194;-81
2023/01/29 00:29:01;;;;;;;17.40;10.30;;;2.10;99.90;;;;;;4912843;29;20495;-81
2023/01/29 00:31:28;;;;;;;15.40;10.45;;;2.00;99.90;;;;;;4906245;29;20082;-81
2023/01/29 00:33:56;;;;;;;16.50;10.93;;;2.10;99.90;;;;;;4908343;29;20049;-81
2023/01/29 00:36:24;;;;;;;15.25;9.20;;;2.00;99.90;;;;;;4920872;29;20058;-80
2023/01/29 00:38:59;;;;;;;15.13;9.27;;;2.00;99.90;;;;;;4924793;29;20602;-81
2023/01/29 00:47:00;;;;;;;19.30;11.20;;;2.00;99.90;;;;;;4906649;29;20048;-81
2023/01/29 00:49:27;;;;;;;15.73;10.02;;;2.00;99.90;;;;;;4911708;29;20046;-81
2023/01/29 00:54:39;;;;;;;17.08;9.98;;;1.80;99.90;;;;;;4918397;29;20127;-81
2023/01/29 00:57:05;;;;;;;14.43;9.40;;;1.90;99.90;;;;;;4914068;29;20087;-81
2023/01/29 00:59:32;;;;;;;17.58;9.65;;;1.80;99.90;;;;;;4908489;29;20053;-81
2023/01/29 01:04:44;;;;;;;14.43;10.25;;;1.80;99.90;;;;;;4917459;29;20083;-81
2023/01/29 01:07:11;;;;;;;14.73;9.77;;;1.80;99.90;;;;;;4915604;29;20041;-81
2023/01/29 01:12:27;;;;;;;19.58;10.70;;;1.90;99.90;;;;;;4926213;29;20072;-80
2023/01/29 01:14:54;;;;;;;15.52;9.73;;;1.90;99.90;;;;;;4926284;29;20052;-80
2023/01/29 01:17:20;;;;;;;17.08;10.57;;;1.90;99.90;;;;;;4915659;29;20051;-81
2023/01/29 01:19:47;;;;;;;15.93;10.50;;;1.90;99.90;;;;;;4911396;29;20144;-81
2023/01/29 01:22:14;;;;;;;15.15;10.00;;;1.90;99.90;;;;;;4912619;29;20091;-81
2023/01/29 01:24:41;;;;;;;14.52;9.98;;;1.90;99.90;;;;;;4909229;29;20131;-81
2023/01/29 01:27:08;;;;;;;15.40;10.50;;;1.90;99.90;;;;;;4905659;29;20079;-81
2023/01/29 01:29:35;;;;;;;14.35;9.18;;;2.00;99.90;;;;;;4908094;29;20047;-80
2023/01/29 01:32:02;;;;;;;15.95;10.52;;;1.90;99.90;;;;;;4914646;29;20639;-81
2023/01/29 01:34:28;;;;;;;15.07;9.98;;;2.00;99.90;;;;;;4912337;29;20480;-80
2023/01/29 01:36:56;;;;;;;15.23;10.65;;;2.00;99.90;;;;;;4914988;29;20059;-81
2023/01/29 01:39:23;;;;;;;12.50;9.40;;;2.00;99.90;;;;;;4913556;29;20131;-81
2023/01/29 01:41:54;;;;;;;15.43;10.20;;;2.00;99.90;;;;;;4908003;29;20158;-80
2023/01/29 01:44:54;;;;;;;16.75;10.07;;;2.00;99.90;;;;;;4907303;29;20041;-80
2023/01/29 01:47:30;;;;;;;16.40;10.50;;;2.00;99.90;;;;;;4910262;29;20086;-81
2023/01/29 01:50:01;;;;;;;17.55;11.00;;;2.00;99.90;;;;;;4915369;29;20047;-80
2023/01/29 01:52:30;;;;;;;18.98;11.68;;;2.00;99.90;;;;;;4891307;29;20100;-81
2023/01/29 01:54:58;;;;;;;14.45;9.25;;;2.00;99.90;;;;;;4902987;29;20124;-80
2023/01/29 01:57:27;;;;;;;17.33;12.00;;;2.00;99.90;;;;;;4911041;29;20063;-81
2023/01/29 02:00:08;;;;;;;17.08;10.85;;;1.90;99.90;;;;;;4912817;29;20056;-80
2023/01/29 02:10:56;;;;;;;17.48;10.82;;;1.70;99.90;;;;;;4916281;29;20048;-80
2023/01/29 02:13:23;;;;;;;18.48;10.60;;;1.70;99.90;;;;;;4914240;29;20107;-80
2023/01/29 02:15:50;;;;;;;18.58;12.05;;;1.60;99.90;;;;;;4896965;29;20549;-80
2023/01/29 02:18:20;;;;;;;21.67;11.57;;;1.60;99.90;;;;;;4910743;29;20048;-80
2023/01/29 02:21:28;;;;;;;19.17;11.82;;;1.60;99.90;;;;;;4916334;29;20421;-80
2023/01/29 02:24:03;;;;;;;19.48;11.25;;;1.50;99.90;;;;;;4910125;29;20524;-80
2023/01/29 02:26:39;;;;;;;18.88;10.70;;;1.50;99.90;;;;;;4911043;29;20113;-80
2023/01/29 02:29:24;;;;;;;21.40;12.07;;;1.40;99.90;;;;;;4907727;29;20130;-80
2023/01/29 02:32:22;;;;;;;18.80;12.15;;;1.30;99.90;;;;;;4911877;29;20195;-80
2023/01/29 02:35:24;;;;;;;22.38;12.23;;;1.30;99.90;;;;;;4851806;29;20048;-80
2023/01/29 02:38:16;;;;;;;18.25;11.20;;;1.20;99.90;;;;;;4902412;29;20049;-80
2023/01/29 02:40:51;;;;;;;15.60;10.50;;;1.10;99.90;;;;;;4877397;29;20481;-80
2023/01/29 02:43:37;;;;;;;17.48;11.73;;;1.00;99.90;;;;;;4911754;29;20052;-80
2023/01/29 02:46:24;;;;;;;17.02;10.63;;;1.00;99.90;;;;;;4915092;29;20052;-80
2023/01/29 02:48:57;;;;;;;22.25;12.15;;;1.00;99.90;;;;;;4901652;29;20081;-80
2023/01/29 02:51:34;;;;;;;16.95;11.30;;;1.00;99.90;;;;;;4906703;29;20056;-80
2023/01/29 02:54:12;;;;;;;18.55;12.25;;;0.90;99.90;;;;;;4906198;29;20157;-79
2023/01/29 02:56:54;;;;;;;19.05;12.15;;;0.90;99.90;;;;;;4905530;29;20052;-80
2023/01/29 02:59:33;;;;;;;22.90;13.13;;;0.90;99.90;;;;;;4910004;29;20059;-80
2023/01/29 03:02:20;;;;;;;18.15;12.63;;;0.90;99.90;;;;;;4907296;29;20062;-80
2023/01/29 03:04:54;;;;;;;18.88;11.23;;;0.80;99.90;;;;;;4908745;29;20510;-80
2023/01/29 03:07:43;;;;;;;21.05;13.25;;;0.80;99.90;;;;;;4908709;29;20048;-80
2023/01/29 03:10:16;;;;;;;20.08;12.55;;;0.80;99.90;;;;;;4907268;29;20052;-79
2023/01/29 03:12:48;;;;;;;23.10;12.98;;;0.80;99.90;;;;;;4908301;29;20419;-79
2023/01/29 03:15:25;;;;;;;23.40;13.07;;;0.80;99.90;;;;;;4910167;29;20044;-79
2023/01/29 03:18:10;;;;;;;23.08;14.60;;;0.80;99.90;;;;;;4906833;29;20049;-80
2023/01/29 03:20:47;;;;;;;21.20;12.30;;;0.80;99.90;;;;;;4902380;29;20134;-79
2023/01/29 03:23:25;;;;;;;19.55;12.10;;;0.80;99.90;;;;;;4911465;29;20058;-80
2023/01/29 03:34:27;;;;;;;20.42;11.88;;;0.80;99.90;;;;;;4905852;29;20051;-80
2023/01/29 03:36:58;;;;;;;17.20;11.98;;;0.90;99.90;;;;;;4898793;29;20067;-80
2023/01/29 03:39:27;;;;;;;20.38;11.90;;;0.90;99.90;;;;;;4906846;29;20066;-80
2023/01/29 03:42:01;;;;;;;16.17;10.77;;;0.90;99.90;;;;;;4910801;29;20414;-80
2023/01/29 03:44:51;;;;;;;19.40;13.43;;;1.00;99.90;;;;;;4908760;29;20562;-80
2023/01/29 03:47:26;;;;;;;21.13;13.57;;;1.00;99.90;;;;;;4908215;29;20127;-80
2023/01/29 03:50:06;;;;;;;19.85;13.30;;;1.00;99.90;;;;;;4908225;29;20048;-81
2023/01/29 03:53:15;;;;;;;22.17;12.38;;;1.10;99.90;;;;;;4909044;29;20611;-80
2023/01/29 03:55:45;;;;;;;24.95;13.90;;;1.10;99.90;;;;;;4901209;29;20071;-79
2023/01/29 03:58:22;;;;;;;;;;;1.20;99.90;;;;;;4913265;29;20132;-83
2023/01/29 04:00:57;;;;;;;19.13;12.18;;;1.20;99.90;;;;;;4907648;29;20028;-79
2023/01/29 04:03:32;;;;;;;22.98;13.10;;;1.20;99.90;;;;;;4909189;29;20143;-79
2023/01/29 04:06:13;;;;;;;20.23;12.68;;;1.20;99.90;;;;;;4904817;29;20131;-81
2023/01/29 04:08:49;;;;;;;21.67;12.88;;;1.20;99.90;;;;;;4912365;29;20076;-82
2023/01/29 04:11:19;;;;;;;20.75;12.98;;;1.20;99.90;;;;;;4907826;29;20072;-81
2023/01/29 04:13:46;;;;;;;21.30;13.80;;;1.20;99.90;;;;;;4909330;29;20048;-82
2023/01/29 04:16:21;;;;;;;23.55;13.27;;;1.20;99.90;;;;;;4898412;29;20048;-81
2023/01/29 04:18:49;;;;;;;21.27;13.90;;;1.20;99.90;;;;;;4907526;29;20048;-81
2023/01/29 04:21:17;;;;;;;23.45;13.88;;;1.20;99.90;;;;;;4908177;29;20137;-79
2023/01/29 04:23:44;;;;;;;23.27;13.98;;;1.20;99.90;;;;;;4908890;29;20514;-79
2023/01/29 04:26:41;;;;;;;24.45;13.82;;;1.10;99.90;;;;;;4913507;29;20123;-79
2023/01/29 04:29:36;;;;;;;25.20;14.73;;;1.20;99.90;;;;;;4908558;29;20086;-80
2023/01/29 04:32:29;;;;;;;20.23;12.77;;;1.20;99.90;;;;;;4905988;29;20092;-80
2023/01/29 04:35:21;;;;;;;23.50;14.32;;;1.10;99.90;;;;;;4917163;29;20142;-80
2023/01/29 04:38:06;;;;;;;21.13;13.02;;;1.20;99.90;;;;;;4916065;29;20055;-80
2023/01/29 04:40:48;;;;;;;22.92;13.38;;;1.20;99.90;;;;;;4916072;29;20143;-80
2023/01/29 04:43:41;;;;;;;23.73;14.60;;;1.20;99.90;;;;;;4912005;29;20048;-79
2023/01/29 04:46:29;;;;;;;19.83;13.00;;;1.20;99.90;;;;;;4910436;29;20140;-79
2023/01/29 04:49:18;;;;;;;23.73;12.98;;;1.20;99.90;;;;;;4910605;29;20051;-79
2023/01/29 04:52:06;;;;;;;21.65;12.68;;;1.10;99.90;;;;;;4916260;29;20136;-79
2023/01/29 04:54:50;;;;;;;21.75;12.93;;;1.10;99.90;;;;;;4911241;29;20127;-79
2023/01/29 04:57:46;;;;;;;22.73;13.68;;;1.10;99.90;;;;;;4903351;29;20051;-79
2023/01/29 05:00:24;;;;;;;22.05;13.65;;;1.00;99.90;;;;;;4910498;29;20102;-79
2023/01/29 05:02:52;;;;;;;20.35;12.55;;;1.00;99.90;;;;;;4912068;29;20132;-79
2023/01/29 05:05:20;;;;;;;21.35;13.95;;;1.00;99.90;;;;;;4913497;29;20048;-79
2023/01/29 05:07:47;;;;;;;21.20;13.98;;;0.90;99.90;;;;;;4914367;29;20121;-80
2023/01/29 05:10:17;;;;;;;20.00;12.77;;;0.90;99.90;;;;;;4903361;29;20048;-79
2023/01/29 05:12:46;;;;;;;;;;;0.90;99.90;;;;;;4908123;29;20040;-80
2023/01/29 05:15:18;;;;;;;21.33;13.63;;;0.90;99.90;;;;;;4902622;29;19930;-79
2023/01/29 05:17:44;;;;;;;24.42;13.80;;;1.00;99.90;;;;;;4919035;29;20104;-78
2023/01/29 05:20:12;;;;;;;21.65;13.80;;;0.90;99.90;;;;;;4920735;29;20052;-78
2023/01/29 05:22:41;;;;;;;23.60;14.10;;;1.00;99.90;;;;;;4917130;29;20657;-79
2023/01/29 05:25:29;;;;;;;26.38;14.40;;;0.90;99.90;;;;;;4920110;29;20076;-79
2023/01/29 05:28:06;;;;;;;19.00;11.95;;;0.90;99.90;;;;;;4912138;29;20044;-79
2023/01/29 05:30:35;;;;;;;34.15;14.60;;;0.90;99.90;;;;;;4898725;29;20044;-79
2023/01/29 05:33:03;;;;;;;24.07;14.17;;;0.90;99.90;;;;;;4911403;29;20056;-79
2023/01/29 05:35:30;;;;;;;22.25;13.48;;;0.90;99.90;;;;;;4912052;29;20054;-79
2023/01/29 05:37:57;;;;;;;23.42;13.73;;;1.00;99.90;;;;;;4911095;29;20049;-79
2023/01/29 05:40:24;;;;;;;18.65;13.25;;;1.00;99.90;;;;;;4905800;29;20084;-79
2023/01/29 05:42:50;;;;;;;17.88;12.07;;;1.10;99.90;;;;;;4905255;29;20131;-79
2023/01/29 05:45:18;;;;;;;19.50;12.40;;;1.10;99.90;;;;;;4916632;29;20044;-81
2023/01/29 05:47:46;;;;;;;20.00;11.38;;;1.10;99.90;;;;;;4897873;29;20045;-79
2023/01/29 05:50:13;;;;;;;18.90;12.07;;;1.10;99.90;;;;;;4916179;29;20079;-78
2023/01/29 05:52:40;;;;;;;19.88;12.18;;;1.10;99.90;;;;;;4920959;29;20069;-78
2023/01/29 05:55:09;;;;;;;18.92;11.27;;;1.10;99.90;;;;;;4919638;29;20081;-79
2023/01/29 05:57:36;;;;;;;20.85;12.00;;;1.10;99.90;;;;;;4908643;29;20120;-79
2023/01/29 06:00:04;;;;;;;16.10;10.95;;;1.10;99.90;;;;;;4907214;29;20545;-79
2023/01/29 06:02:30;;;;;;;20.10;12.18;;;1.20;99.90;;;;;;4911335;29;20430;-79
2023/01/29 06:04:57;;;;;;;18.42;11.43;;;1.10;99.90;;;;;;4909602;29;20053;-78
2023/01/29 06:07:24;;;;;;;18.75;11.00;;;1.10;99.90;;;;;;4903880;29;20132;-79
2023/01/29 06:09:51;;;;;;;19.17;11.85;;;1.00;99.90;;;;;;4905143;29;20048;-79
2023/01/29 06:12:17;;;;;;;16.60;10.77;;;1.10;99.90;;;;;;4910597;29;20048;-79
2023/01/29 06:14:44;;;;;;;18.38;11.30;;;1.10;99.90;;;;;;4909899;29;20058;-78
2023/01/29 06:17:11;;;;;;;19.17;12.02;;;1.10;99.90;;;;;;4909650;29;20135;-79
2023/01/29 06:19:38;;;;;;;19.27;12.10;;;1.10;99.90;;;;;;4910131;29;20048;-79
2023/01/29 06:22:04;;;;;;;17.73;10.85;;;1.10;99.90;;;;;;4906420;29;20051;-79
2023/01/29 06:24:31;;;;;;;19.48;10.93;;;1.20;99.90;;;;;;4902664;29;20388;-79
2023/01/29 06:26:58;;;;;;;21.63;11.55;;;1.10;99.90;;;;;;4900612;29;20123;-80
2023/01/29 06:29:25;;;;;;;19.98;11.30;;;1.10;99.90;;;;;;4911080;29;20076;-80
2023/01/29 06:31:51;;;;;;;17.15;11.30;;;1.10;99.90;;;;;;4907107;29;20135;-78
2023/01/29 06:34:18;;;;;;;19.05;11.10;;;1.10;99.90;;;;;;4913249;29;20080;-79
2023/01/29 06:36:46;;;;;;;22.02;12.48;;;1.00;99.90;;;;;;4910269;29;20388;-78
2023/01/29 06:39:12;;;;;;;18.35;11.60;;;1.00;99.90;;;;;;4908722;29;20051;-79
2023/01/29 06:41:39;;;;;;;18.13;11.32;;;0.90;99.90;;;;;;4907219;29;20083;-78
2023/01/29 06:44:06;;;;;;;20.80;11.85;;;0.90;99.90;;;;;;4907736;29;20040;-79
2023/01/29 06:46:33;;;;;;;22.08;12.23;;;0.80;99.90;;;;;;4908349;29;20143;-78
2023/01/29 06:49:00;;;;;;;20.00;11.75;;;0.80;99.90;;;;;;4904953;29;20048;-78
2023/01/29 06:51:26;;;;;;;20.65;12.40;;;0.80;99.90;;;;;;4899593;29;20045;-78
2023/01/29 06:53:54;;;;;;;20.40;12.50;;;0.70;99.90;;;;;;4906402;29;20105;-78
2023/01/29 06:56:22;;;;;;;21.80;12.88;;;0.70;99.90;;;;;;4910562;29;20052;-78
2023/01/29 06:58:48;;;;;;;20.08;12.23;;;0.70;99.90;;;;;;4909902;29;20048;-79
2023/01/29 07:01:15;;;;;;;20.50;11.80;;;0.60;99.90;;;;;;4910194;29;20051;-78
2023/01/29 07:04:01;;;;;;;18.85;11.88;;;0.60;99.90;;;;;;4898251;29;20074;-79
2023/01/29 07:06:29;;;;;;;20.00;12.70;;;0.50;99.90;;;;;;4906793;29;20049;-79
2023/01/29 07:08:55;;;;;;;20.83;12.73;;;0.50;99.90;;;;;;4902268;29;20073;-81
2023/01/29 07:11:22;;;;;;;22.85;13.63;;;0.50;99.90;;;;;;4904411;29;20048;-81
2023/01/29 07:13:49;;;;;;;21.55;13.48;;;0.50;99.90;;;;;;4909281;29;20508;-81
2023/01/29 07:16:17;;;;;;;19.98;13.02;;;0.50;99.90;;;;;;4891979;29;20052;-81
2023/01/29 07:18:44;;;;;;;19.40;12.23;;;0.60;99.90;;;;;;4910730;29;20063;-79
2023/01/29 07:21:11;;;;;;;19.75;12.55;;;0.50;99.90;;;;;;4909823;29;20050;-79
2023/01/29 07:23:38;;;;;;;20.42;10.82;;;0.60;99.90;;;;;;4907997;29;20503;-79
2023/01/29 07:26:05;;;;;;;19.50;12.35;;;0.60;99.90;;;;;;4909746;29;20048;-79
2023/01/29 07:28:39;;;;;;;20.08;12.43;;;0.60;99.90;;;;;;4892508;29;20582;-79
2023/01/29 07:31:07;;;;;;;19.88;11.40;;;0.70;99.90;;;;;;4892617;29;20076;-81
2023/01/29 07:33:34;;;;;;;16.50;10.77;;;0.70;99.90;;;;;;4904149;29;20045;-79
2023/01/29 07:36:00;;;;;;;16.77;11.18;;;0.70;99.90;;;;;;4903317;29;20720;-82
2023/01/29 07:38:27;;;;;;;16.13;10.18;;;0.80;99.90;;;;;;4911643;29;20553;-79
2023/01/29 07:40:54;;;;;;;19.63;11.88;;;0.80;99.90;;;;;;4911358;29;20185;-79
2023/01/29 07:43:23;;;;;;;19.55;11.70;;;0.90;99.90;;;;;;4895333;29;20570;-79
2023/01/29 07:45:50;;;;;;;24.10;11.23;;;0.90;99.90;;;;;;4915619;29;20079;-79
2023/01/29 07:48:18;;;;;;;19.20;11.55;;;0.90;99.90;;;;;;4908404;29;20054;-79
2023/01/29 07:50:52;;;;;;;18.17;10.63;;;1.00;99.90;;;;;;4906443;29;20044;-79
2023/01/29 07:53:19;;;;;;;14.48;9.48;;;1.00;99.90;;;;;;4910147;29;20044;-79
2023/01/29 07:55:45;;;;;;;18.75;12.00;;;1.10;99.90;;;;;;4911542;29;20521;-79
2023/01/29 07:58:12;;;;;;;17.45;10.80;;;1.10;99.90;;;;;;4909587;29;20123;-81
2023/01/29 08:00:39;;;;;;;14.07;9.63;;;1.20;99.90;;;;;;4904617;29;20515;-79
2023/01/29 08:03:12;;;;;;;17.05;11.70;;;1.20;99.90;;;;;;4903186;29;20091;-80
2023/01/29 08:05:39;;;;;;;20.83;13.10;;;1.30;99.90;;;;;;4899827;29;20044;-80
2023/01/29 08:08:05;;;;;;;17.13;11.25;;;1.30;99.90;;;;;;4920680;29;20144;-79
2023/01/29 08:10:34;;;;;;;15.27;9.68;;;1.40;99.90;;;;;;4917143;29;20052;-79
2023/01/29 08:13:02;;;;;;;15.63;10.07;;;1.40;99.90;;;;;;4911282;29;20076;-80
2023/01/29 08:15:29;;;;;;;14.10;9.30;;;1.40;99.90;;;;;;4908619;29;20572;-80
2023/01/29 08:17:55;;;;;;;19.88;11.80;;;1.50;99.90;;;;;;4904216;29;20084;-79
2023/01/29 08:20:24;;;;;;;22.95;13.20;;;1.50;99.90;;;;;;4904734;29;20048;-80
2023/01/29 08:22:59;;;;;;;16.27;10.10;;;1.50;99.90;;;;;;4910917;29;20052;-80
2023/01/29 08:25:26;;;;;;;14.45;8.15;;;1.60;99.90;;;;;;4907158;29;20402;-80
2023/01/29 08:27:53;;;;;;;12.73;8.13;;;1.60;99.90;;;;;;4904080;29;20135;-80
2023/01/29 08:30:20;;;;;;;14.88;9.90;;;1.70;99.90;;;;;;4911885;29;20056;-79
2023/01/29 08:32:46;;;;;;;16.55;10.27;;;1.80;99.90;;;;;;4906159;29;20049;-80
2023/01/29 08:35:13;;;;;;;16.65;11.02;;;1.80;99.90;;;;;;4899912;29;20080;-80
2023/01/29 08:37:40;;;;;;;21.02;12.77;;;1.80;99.90;;;;;;4909386;29;20048;-80
2023/01/29 08:40:09;;;;;;;18.23;11.68;;;1.90;99.90;;;;;;4911464;29;20478;-79
2023/01/29 08:42:36;;;;;;;16.65;11.18;;;1.90;99.90;;;;;;4905791;29;20056;-80
2023/01/29 08:45:03;;;;;;;16.42;10.82;;;1.90;99.90;;;;;;4902812;29;20522;-80
2023/01/29 08:47:30;;;;;;;19.17;11.75;;;2.00;99.90;;;;;;4906726;29;20076;-79
2023/01/29 08:49:56;;;;;;;17.27;10.85;;;2.00;99.90;;;;;;4896487;29;20051;-79
2023/01/29 08:52:23;;;;;;;18.70;11.10;;;2.00;99.90;;;;;;4911180;29;20055;-79
2023/01/29 08:54:50;;;;;;;17.27;11.13;;;2.00;99.90;;;;;;4913011;29;20099;-79
2023/01/29 08:57:17;;;;;;;19.60;11.55;;;2.00;99.90;;;;;;4913780;29;20098;-80
2023/01/29 08:59:43;;;;;;;17.15;11.00;;;2.10;99.90;;;;;;4928194;29;20037;-79
2023/01/29 09:02:10;;;;;;;19.95;11.98;;;2.00;99.90;;;;;;4932441;28;20092;-79
2023/01/29 09:04:37;;;;;;;18.58;11.23;;;2.00;99.90;;;;;;4931758;28;20032;-79
2023/01/29 09:07:04;;;;;;;18.60;11.20;;;2.10;99.90;;;;;;4932021;28;21197;-79
2023/01/29 09:09:30;;;;;;;20.98;12.00;;;2.00;99.90;;;;;;4913819;29;20048;-80
2023/01/29 09:11:57;;;;;;;21.65;11.77;;;2.10;99.90;;;;;;4924474;29;20111;-79
2023/01/29 09:14:24;;;;;;;18.42;11.20;;;2.10;99.90;;;;;;4916237;29;20112;-79
2023/01/29 09:16:51;;;;;;;17.95;11.38;;;2.10;99.90;;;;;;4919461;29;20120;-80
2023/01/29 09:19:17;;;;;;;18.90;11.35;;;2.10;99.90;;;;;;4912729;29;20131;-80
2023/01/29 09:21:44;;;;;;;20.52;12.20;;;2.10;99.90;;;;;;4911964;29;20135;-79
2023/01/29 09:24:11;;;;;;;17.83;11.18;;;2.00;99.90;;;;;;4912740;29;20156;-80
2023/01/29 09:26:39;;;;;;;14.38;9.82;;;2.10;99.90;;;;;;4906664;29;20049;-80
2023/01/29 09:29:05;;;;;;;15.52;9.95;;;2.00;99.90;;;;;;4906712;29;20130;-80
2023/01/29 09:31:32;;;;;;;14.57;9.45;;;2.00;99.90;;;;;;4910140;29;20068;-79
2023/01/29 09:33:59;;;;;;;14.07;9.70;;;2.00;99.90;;;;;;4914811;29;20084;-80
2023/01/29 09:36:26;;;;;;;9.32;6.43;;;2.00;99.90;;;;;;4909840;29;20061;-79
2023/01/29 09:38:52;;;;;;;11.13;7.05;;;2.00;99.90;;;;;;4918888;29;20554;-80
2023/01/29 09:41:31;;;;;;;13.98;7.70;;;1.90;99.90;;;;;;4914631;29;20075;-80
2023/01/29 09:44:04;;;;;;;11.83;7.37;;;1.90;99.90;;;;;;4911676;29;20049;-80
2023/01/29 09:46:39;;;;;;;13.90;9.38;;;1.90;99.90;;;;;;4911967;29;20062;-80
2023/01/29 09:49:30;;;;;;;13.38;8.93;;;2.00;99.90;;;;;;4915160;29;20039;-80
2023/01/29 09:52:20;;;;;;;15.52;9.60;;;2.00;99.90;;;;;;4915315;29;20079;-80
2023/01/29 09:54:50;;;;;;;16.58;9.35;;;2.00;99.90;;;;;;4909950;29;20072;-81
2023/01/29 09:57:23;;;;;;;14.77;9.73;;;2.10;99.90;;;;;;4907604;29;20075;-80
2023/01/29 09:59:50;;;;;;;17.70;10.50;;;2.10;99.90;;;;;;4915109;29;20047;-80
2023/01/29 10:02:39;;;;;;;14.70;8.80;;;2.20;99.90;;;;;;4931407;29;20111;-80
2023/01/29 10:05:42;;;;;;;16.75;10.43;;;2.20;99.90;;;;;;4924459;29;20048;-80
2023/01/29 10:08:31;;;;;;;15.90;9.93;;;2.30;99.90;;;;;;4909616;29;20119;-81
2023/01/29 10:11:38;;;;;;;15.85;9.88;;;2.30;99.90;;;;;;4909212;29;20044;-80
2023/01/29 10:14:39;;;;;;;13.85;9.63;;;2.30;99.90;;;;;;4909723;29;20130;-81
2023/01/29 10:17:09;;;;;;;14.60;9.75;;;2.30;99.90;;;;;;4900376;29;20394;-80
2023/01/29 10:19:45;;;;;;;13.65;9.60;;;2.30;99.90;;;;;;4909549;29;20392;-80
2023/01/29 10:22:33;;;;;;;15.45;10.10;;;2.30;99.90;;;;;;4904639;29;20049;-80
2023/01/29 10:25:08;;;;;;;15.85;10.43;;;2.30;99.90;;;;;;4912656;29;20425;-80
2023/01/29 10:27:39;;;;;;;18.20;10.63;;;2.30;99.90;;;;;;4913669;29;20132;-80
2023/01/29 10:30:29;;;;;;;15.93;10.82;;;2.40;99.90;;;;;;4897019;29;20487;-80
2023/01/29 10:33:01;;;;;;;17.60;11.05;;;2.30;99.90;;;;;;4906574;29;20124;-80
2023/01/29 10:35:36;;;;;;;20.52;11.90;;;2.30;99.90;;;;;;4911450;29;20132;-80
2023/01/29 10:38:27;;;;;;;17.30;11.60;;;2.20;99.90;;;;;;4906249;29;20080;-80
2023/01/29 10:41:09;;;;;;;16.90;10.38;;;2.20;99.90;;;;;;4890379;29;20087;-80
2023/01/29 10:44:20;;;;;;;15.52;9.85;;;2.20;99.90;;;;;;4913768;29;20048;-80
2023/01/29 10:46:58;;;;;;;16.40;9.35;;;2.30;99.90;;;;;;4861282;29;20071;-80
2023/01/29 10:50:10;;;;;;;15.23;10.23;;;2.30;99.90;;;;;;4912782;29;20048;-80
2023/01/29 10:53:04;;;;;;;18.38;9.70;;;2.30;99.90;;;;;;4897645;29;20083;-80
2023/01/29 10:55:40;;;;;;;14.68;9.40;;;2.30;99.90;;;;;;4909807;29;20478;-81
2023/01/29 10:58:28;;;;;;;13.80;8.07;;;2.40;99.90;;;;;;4912677;29;20127;-80
2023/01/29 11:00:55;;;;;;;9.93;6.85;;;2.40;99.90;;;;;;4928084;29;20049;-79
2023/01/29 11:03:25;;;;;;;11.13;7.55;;;2.40;99.90;;;;;;4923002;29;20044;-80
2023/01/29 11:05:59;;;;;;;11.63;8.15;;;2.50;99.90;;;;;;4914394;29;20048;-79
2023/01/29 11:08:39;;;;;;;11.68;7.15;;;2.60;99.90;;;;;;4929275;29;20044;-80
2023/01/29 11:11:16;;;;;;;10.27;7.20;;;2.70;99.90;;;;;;4947155;23;20076;-80
2023/01/29 11:14:01;;;;;;;8.65;6.07;;;2.80;99.90;;;;;;4895569;29;20044;-80
2023/01/29 11:16:29;;;;;;;6.07;4.10;;;2.90;99.90;;;;;;4911409;29;20493;-79
2023/01/29 11:18:58;;;;;;;5.85;4.25;;;3.00;99.90;;;;;;4907669;29;20129;-80
2023/01/29 11:21:26;;;;;;;5.35;4.18;;;3.20;99.90;;;;;;4898332;29;20055;-79
2023/01/29 11:24:26;;;;;;;11.15;5.57;;;3.30;99.90;;;;;;4897711;29;20054;-80
2023/01/29 11:26:58;;;;;;;8.23;6.03;;;3.40;99.90;;;;;;4882028;29;20680;-80
2023/01/29 11:29:36;;;;;;;8.00;5.28;;;3.50;99.90;;;;;;4907365;29;20071;-80
2023/01/29 11:32:09;;;;;;;9.30;5.90;;;3.50;99.90;;;;;;4899792;29;20056;-80
2023/01/29 11:35:03;;;;;;;8.65;5.82;;;3.60;99.90;;;;;;4898922;29;20422;-80
2023/01/29 11:37:38;;;;;;;6.97;4.95;;;3.70;99.90;;;;;;4907959;29;20080;-79
2023/01/29 11:40:23;;;;;;;9.98;5.75;;;3.80;99.90;;;;;;4911301;29;20055;-80
2023/01/29 11:42:52;;;;;;;9.00;5.85;;;3.70;99.90;;;;;;4899377;29;20086;-79
2023/01/29 11:45:19;;;;;;;7.95;5.25;;;3.70;99.90;;;;;;4908275;29;20179;-80
2023/01/29 11:47:52;;;;;;;7.68;5.50;;;3.60;99.90;;;;;;4898250;29;20135;-79
2023/01/29 11:50:23;;;;;;;8.63;5.95;;;3.80;99.90;;;;;;4885588;29;20065;-80
2023/01/29 11:52:50;;;;;;;8.13;6.38;;;3.90;99.90;;;;;;4893421;29;20051;-80
2023/01/29 11:55:21;;;;;;;9.98;6.07;;;4.10;99.90;;;;;;4909421;29;20127;-80
2023/01/29 11:58:00;;;;;;;9.43;6.72;;;4.10;99.90;;;;;;4896018;29;20087;-80
2023/01/29 12:00:30;;;;;;;9.70;5.75;;;4.30;99.90;;;;;;4911056;29;20062;-79
2023/01/29 12:03:20;;;;;;;8.18;5.22;;;4.30;99.90;;;;;;4901237;29;20127;-80
2023/01/29 12:05:57;;;;;;;8.65;6.25;;;4.40;99.90;;;;;;4907401;29;20072;-80
2023/01/29 12:08:25;;;;;;;11.65;7.93;;;4.40;99.90;;;;;;4911247;29;20509;-80
2023/01/29 12:11:13;;;;;;;8.90;5.80;;;4.40;99.90;;;;;;4909390;29;20694;-80
2023/01/29 12:13:42;;;;;;;8.00;5.65;;;4.40;99.90;;;;;;4904647;29;20131;-80
2023/01/29 12:16:15;;;;;;;7.90;5.30;;;4.40;99.90;;;;;;4906127;29;20052;-80
2023/01/29 12:18:49;;;;;;;8.65;6.07;;;4.50;99.90;;;;;;4912108;29;20048;-80
2023/01/29 12:21:23;;;;;;;7.57;5.82;;;4.50;99.90;;;;;;4912053;29;20048;-79
2023/01/29 12:24:15;;;;;;;7.80;5.60;;;4.50;99.90;;;;;;4894912;29;20188;-80
2023/01/29 12:26:50;;;;;;;8.55;6.25;;;4.50;99.90;;;;;;4886006;29;20037;-80
2023/01/29 12:29:36;;;;;;;7.78;5.40;;;4.40;99.90;;;;;;4903585;29;20076;-80
2023/01/29 12:32:31;;;;;;;7.15;5.45;;;4.50;99.90;;;;;;4906154;29;20049;-80
2023/01/29 12:35:22;;;;;;;10.20;6.05;;;4.50;99.90;;;;;;4907382;29;20051;-80
2023/01/29 12:38:02;;;;;;;10.95;5.78;;;4.50;99.90;;;;;;4895127;29;20051;-82
2023/01/29 12:40:54;;;;;;;7.57;5.03;;;4.50;99.90;;;;;;4904164;29;20060;-79
2023/01/29 12:43:47;;;;;;;13.07;5.95;;;4.50;99.90;;;;;;4886024;29;20494;-78
2023/01/29 12:46:39;;;;;;;8.10;5.93;;;4.50;99.90;;;;;;4902608;29;20056;-77
2023/01/29 12:49:18;;;;;;;8.45;5.57;;;4.40;99.90;;;;;;4902436;29;20052;-78
2023/01/29 12:52:12;;;;;;;7.53;5.72;;;4.40;99.90;;;;;;4913840;29;20131;-78
2023/01/29 12:54:46;;;;;;;7.07;5.32;;;4.50;99.90;;;;;;4921652;29;20052;-78
2023/01/29 12:57:22;;;;;;;8.32;5.50;;;4.40;99.90;;;;;;4919222;29;20107;-78
2023/01/29 12:59:57;;;;;;;7.30;5.60;;;4.50;99.90;;;;;;4908074;29;20079;-79
2023/01/29 13:02:56;;;;;;;9.82;5.10;;;4.50;99.90;;;;;;4912170;29;20167;-79
2023/01/29 13:05:30;;;;;;;7.72;5.60;;;4.60;99.90;;;;;;4912802;29;20574;-78
2023/01/29 13:08:04;;;;;;;9.07;5.57;;;4.70;99.90;;;;;;4914420;29;20052;-79
2023/01/29 13:10:37;;;;;;;9.07;5.75;;;4.70;99.90;;;;;;4912036;29;20495;-79
2023/01/29 13:13:25;;;;;;;8.75;5.78;;;4.80;99.90;;;;;;4900909;29;20052;-79
2023/01/29 13:15:52;;;;;;;8.57;5.70;;;4.90;99.90;;;;;;4909199;29;20067;-78
2023/01/29 13:18:47;;;;;;;9.48;5.97;;;4.90;99.90;;;;;;4910948;29;20079;-79
2023/01/29 13:21:18;;;;;;;13.80;9.48;;;4.90;99.90;;;;;;4909628;29;20044;-79
2023/01/29 13:23:49;;;;;;;6.68;5.13;;;4.90;99.90;;;;;;4914724;29;20048;-78
2023/01/29 13:26:20;;;;;;;9.40;5.90;;;4.90;99.90;;;;;;4911902;29;20132;-79
2023/01/29 13:28:50;;;;;;;13.10;7.45;;;4.90;99.90;;;;;;4914797;29;20040;-79
2023/01/29 13:31:23;;;;;;;47.03;26.20;;;4.90;99.90;;;;;;4897697;29;20092;-80
2023/01/29 13:34:14;;;;;;;10.15;6.55;;;4.90;99.90;;;;;;4909167;29;20068;-80
2023/01/29 13:36:43;;;;;;;9.25;6.25;;;4.90;99.90;;;;;;4911717;29;20048;-81
2023/01/29 13:39:27;;;;;;;7.10;5.07;;;4.80;99.90;;;;;;4891417;29;20130;-81
2023/01/29 13:41:56;;;;;;;12.27;7.35;;;4.80;99.90;;;;;;4905538;29;20049;-78
2023/01/29 13:44:27;;;;;;;9.95;6.55;;;4.80;99.90;;;;;;4906041;29;20051;-80
2023/01/29 13:47:24;;;;;;;9.43;6.30;;;4.70;99.90;;;;;;4912910;29;20048;-80
2023/01/29 13:50:02;;;;;;;10.57;7.18;;;4.70;99.90;;;;;;4890702;29;20435;-80